sensor_id;sensor_type;location;lat;lon;timestamp;P1;durP1;ratioP1;P2;durP2;ratioP2
72037;SDS011;59900;50.788;12.904;2023-08-07T00:00:54;4.43;;;1.97;;
72037;SDS011;59900;50.788;12.904;2023-08-07T00:03:19;3.80;;;1.90;;
72037;SDS011;59900;50.788;12.904;2023-08-07T00:05:48;3.73;;;1.70;;
72037;SDS011;59900;50.788;12.904;2023-08-07T00:08:13;3.90;;;1.60;;
72037;SDS011;59900;50.788;12.904;2023-08-07T00:10:39;3.67;;;1.90;;
72037;SDS011;59900;50.788;12.904;2023-08-07T00:13:04;3.80;;;1.90;;
72037;SDS011;59900;50.788;12.904;2023-08-07T00:15:30;3.67;;;2.00;;
72037;SDS011;59900;50.788;12.904;2023-08-07T00:17:55;4.17;;;1.77;;
72037;SDS011;59900;50.788;12.904;2023-08-07T00:20:21;4.00;;;1.87;;
72037;SDS011;59900;50.788;12.904;2023-08-07T00:22:46;3.60;;;1.95;;
72037;SDS011;59900;50.788;12.904;2023-08-07T00:25:11;4.83;;;1.90;;
72037;SDS011;59900;50.788;12.904;2023-08-07T00:27:37;4.57;;;2.30;;
72037;SDS011;59900;50.788;12.904;2023-08-07T00:30:02;5.87;;;2.30;;
72037;SDS011;59900;50.788;12.904;2023-08-07T00:32:28;4.90;;;2.27;;
72037;SDS011;59900;50.788;12.904;2023-08-07T00:34:53;5.10;;;2.50;;
72037;SDS011;59900;50.788;12.904;2023-08-07T00:37:18;5.30;;;2.37;;
72037;SDS011;59900;50.788;12.904;2023-08-07T00:39:44;5.10;;;2.80;;
72037;SDS011;59900;50.788;12.904;2023-08-07T00:42:09;5.10;;;2.90;;
72037;SDS011;59900;50.788;12.904;2023-08-07T00:44:34;5.30;;;2.60;;
72037;SDS011;59900;50.788;12.904;2023-08-07T00:47:00;7.20;;;3.03;;
72037;SDS011;59900;50.788;12.904;2023-08-07T00:49:25;4.70;;;2.73;;
72037;SDS011;59900;50.788;12.904;2023-08-07T00:51:51;4.20;;;2.17;;
72037;SDS011;59900;50.788;12.904;2023-08-07T00:54:18;4.90;;;2.47;;
72037;SDS011;59900;50.788;12.904;2023-08-07T00:56:44;4.60;;;2.40;;
72037;SDS011;59900;50.788;12.904;2023-08-07T00:59:13;4.57;;;2.45;;
72037;SDS011;59900;50.788;12.904;2023-08-07T01:01:39;4.50;;;2.40;;
72037;SDS011;59900;50.788;12.904;2023-08-07T01:04:05;4.80;;;2.60;;
72037;SDS011;59900;50.788;12.904;2023-08-07T01:06:30;4.30;;;2.20;;
72037;SDS011;59900;50.788;12.904;2023-08-07T01:08:56;7.20;;;2.70;;
72037;SDS011;59900;50.788;12.904;2023-08-07T01:11:27;6.13;;;2.30;;
72037;SDS011;59900;50.788;12.904;2023-08-07T01:14:08;4.63;;;2.30;;
72037;SDS011;59900;50.788;12.904;2023-08-07T01:16:48;5.30;;;2.20;;
72037;SDS011;59900;50.788;12.904;2023-08-07T01:19:38;5.10;;;2.50;;
72037;SDS011;59900;50.788;12.904;2023-08-07T01:22:16;5.78;;;3.10;;
72037;SDS011;59900;50.788;12.904;2023-08-07T01:24:43;5.05;;;2.90;;
72037;SDS011;59900;50.788;12.904;2023-08-07T01:32:24;7.40;;;2.60;;
72037;SDS011;59900;50.788;12.904;2023-08-07T01:34:56;5.03;;;2.90;;
72037;SDS011;59900;50.788;12.904;2023-08-07T01:37:23;5.47;;;2.97;;
72037;SDS011;59900;50.788;12.904;2023-08-07T01:39:50;5.05;;;2.65;;
72037;SDS011;59900;50.788;12.904;2023-08-07T01:42:17;5.00;;;2.70;;
72037;SDS011;59900;50.788;12.904;2023-08-07T01:44:43;4.38;;;2.13;;
72037;SDS011;59900;50.788;12.904;2023-08-07T01:47:08;6.30;;;2.40;;
72037;SDS011;59900;50.788;12.904;2023-08-07T01:49:33;6.17;;;2.40;;
72037;SDS011;59900;50.788;12.904;2023-08-07T01:51:59;6.50;;;2.60;;
72037;SDS011;59900;50.788;12.904;2023-08-07T01:54:24;5.23;;;2.33;;
72037;SDS011;59900;50.788;12.904;2023-08-07T01:56:49;4.10;;;2.30;;
72037;SDS011;59900;50.788;12.904;2023-08-07T01:59:17;3.97;;;2.00;;
72037;SDS011;59900;50.788;12.904;2023-08-07T02:01:42;4.53;;;2.25;;
72037;SDS011;59900;50.788;12.904;2023-08-07T02:04:08;4.73;;;2.30;;
72037;SDS011;59900;50.788;12.904;2023-08-07T02:06:33;4.63;;;2.00;;
72037;SDS011;59900;50.788;12.904;2023-08-07T02:08:58;5.40;;;2.80;;
72037;SDS011;59900;50.788;12.904;2023-08-07T02:11:23;6.90;;;2.67;;
72037;SDS011;59900;50.788;12.904;2023-08-07T02:13:49;7.13;;;3.20;;
72037;SDS011;59900;50.788;12.904;2023-08-07T02:16:14;5.70;;;2.70;;
72037;SDS011;59900;50.788;12.904;2023-08-07T02:18:39;6.13;;;2.97;;
72037;SDS011;59900;50.788;12.904;2023-08-07T02:21:07;5.70;;;3.03;;
72037;SDS011;59900;50.788;12.904;2023-08-07T02:23:32;6.73;;;3.20;;
72037;SDS011;59900;50.788;12.904;2023-08-07T02:25:57;4.90;;;2.60;;
72037;SDS011;59900;50.788;12.904;2023-08-07T02:28:23;5.40;;;3.03;;
72037;SDS011;59900;50.788;12.904;2023-08-07T02:30:48;7.23;;;3.40;;
72037;SDS011;59900;50.788;12.904;2023-08-07T02:33:16;6.75;;;3.40;;
72037;SDS011;59900;50.788;12.904;2023-08-07T02:35:41;5.03;;;2.77;;
72037;SDS011;59900;50.788;12.904;2023-08-07T02:38:06;6.17;;;2.50;;
72037;SDS011;59900;50.788;12.904;2023-08-07T02:42:57;6.60;;;2.50;;
72037;SDS011;59900;50.788;12.904;2023-08-07T02:45:22;6.40;;;2.50;;
72037;SDS011;59900;50.788;12.904;2023-08-07T02:47:47;5.43;;;2.60;;
72037;SDS011;59900;50.788;12.904;2023-08-07T02:50:12;5.30;;;3.00;;
72037;SDS011;59900;50.788;12.904;2023-08-07T02:52:38;6.63;;;2.70;;
72037;SDS011;59900;50.788;12.904;2023-08-07T02:55:03;5.00;;;2.83;;
72037;SDS011;59900;50.788;12.904;2023-08-07T02:57:29;5.50;;;2.80;;
72037;SDS011;59900;50.788;12.904;2023-08-07T02:59:54;5.40;;;2.73;;
72037;SDS011;59900;50.788;12.904;2023-08-07T03:02:22;5.88;;;2.92;;
72037;SDS011;59900;50.788;12.904;2023-08-07T03:04:47;6.00;;;2.77;;
72037;SDS011;59900;50.788;12.904;2023-08-07T03:07:13;5.83;;;2.60;;
72037;SDS011;59900;50.788;12.904;2023-08-07T03:09:38;5.03;;;2.73;;
72037;SDS011;59900;50.788;12.904;2023-08-07T03:12:06;4.53;;;2.22;;
72037;SDS011;59900;50.788;12.904;2023-08-07T03:14:31;5.97;;;2.60;;
72037;SDS011;59900;50.788;12.904;2023-08-07T03:16:57;4.80;;;2.33;;
72037;SDS011;59900;50.788;12.904;2023-08-07T03:19:22;6.07;;;2.72;;
72037;SDS011;59900;50.788;12.904;2023-08-07T03:21:47;5.33;;;2.70;;
72037;SDS011;59900;50.788;12.904;2023-08-07T03:24:12;5.57;;;2.70;;
72037;SDS011;59900;50.788;12.904;2023-08-07T03:26:38;5.53;;;2.40;;
72037;SDS011;59900;50.788;12.904;2023-08-07T03:29:03;5.30;;;2.60;;
72037;SDS011;59900;50.788;12.904;2023-08-07T03:31:28;5.50;;;2.73;;
72037;SDS011;59900;50.788;12.904;2023-08-07T03:33:54;5.53;;;2.53;;
72037;SDS011;59900;50.788;12.904;2023-08-07T03:36:19;6.77;;;2.70;;
72037;SDS011;59900;50.788;12.904;2023-08-07T03:38:44;5.53;;;2.87;;
72037;SDS011;59900;50.788;12.904;2023-08-07T03:41:09;6.63;;;2.90;;
72037;SDS011;59900;50.788;12.904;2023-08-07T03:43:35;7.00;;;3.17;;
72037;SDS011;59900;50.788;12.904;2023-08-07T03:46:00;5.37;;;2.53;;
72037;SDS011;59900;50.788;12.904;2023-08-07T03:48:25;6.60;;;3.33;;
72037;SDS011;59900;50.788;12.904;2023-08-07T03:50:51;6.50;;;2.87;;
72037;SDS011;59900;50.788;12.904;2023-08-07T03:53:16;6.33;;;3.20;;
72037;SDS011;59900;50.788;12.904;2023-08-07T03:55:41;7.17;;;2.50;;
72037;SDS011;59900;50.788;12.904;2023-08-07T03:58:07;7.50;;;3.03;;
72037;SDS011;59900;50.788;12.904;2023-08-07T04:00:33;5.93;;;2.80;;
72037;SDS011;59900;50.788;12.904;2023-08-07T04:02:58;6.43;;;2.90;;
72037;SDS011;59900;50.788;12.904;2023-08-07T04:05:24;6.80;;;2.90;;
72037;SDS011;59900;50.788;12.904;2023-08-07T04:07:49;6.00;;;3.07;;
72037;SDS011;59900;50.788;12.904;2023-08-07T04:10:17;6.70;;;2.90;;
72037;SDS011;59900;50.788;12.904;2023-08-07T04:12:42;6.60;;;2.97;;
72037;SDS011;59900;50.788;12.904;2023-08-07T04:15:07;8.33;;;2.77;;
72037;SDS011;59900;50.788;12.904;2023-08-07T04:17:34;7.22;;;2.90;;
72037;SDS011;59900;50.788;12.904;2023-08-07T04:20:00;5.20;;;2.50;;
72037;SDS011;59900;50.788;12.904;2023-08-07T04:22:25;8.03;;;2.60;;
72037;SDS011;59900;50.788;12.904;2023-08-07T04:24:50;5.43;;;2.70;;
72037;SDS011;59900;50.788;12.904;2023-08-07T04:27:16;4.73;;;2.30;;
72037;SDS011;59900;50.788;12.904;2023-08-07T04:29:41;5.37;;;2.60;;
72037;SDS011;59900;50.788;12.904;2023-08-07T04:32:06;5.93;;;2.60;;
72037;SDS011;59900;50.788;12.904;2023-08-07T04:34:32;5.57;;;2.50;;
72037;SDS011;59900;50.788;12.904;2023-08-07T04:36:57;4.43;;;2.17;;
72037;SDS011;59900;50.788;12.904;2023-08-07T04:39:22;4.63;;;2.37;;
72037;SDS011;59900;50.788;12.904;2023-08-07T04:41:48;7.67;;;2.33;;
72037;SDS011;59900;50.788;12.904;2023-08-07T04:44:15;4.38;;;1.90;;
72037;SDS011;59900;50.788;12.904;2023-08-07T04:46:40;4.63;;;2.10;;
72037;SDS011;59900;50.788;12.904;2023-08-07T04:49:06;5.70;;;2.30;;
72037;SDS011;59900;50.788;12.904;2023-08-07T04:51:32;4.33;;;2.23;;
72037;SDS011;59900;50.788;12.904;2023-08-07T04:53:57;4.72;;;2.28;;
72037;SDS011;59900;50.788;12.904;2023-08-07T04:56:22;6.13;;;2.60;;
72037;SDS011;59900;50.788;12.904;2023-08-07T04:58:48;5.70;;;2.00;;
72037;SDS011;59900;50.788;12.904;2023-08-07T05:01:13;5.90;;;2.33;;
72037;SDS011;59900;50.788;12.904;2023-08-07T05:03:38;5.43;;;2.23;;
72037;SDS011;59900;50.788;12.904;2023-08-07T05:06:04;6.03;;;2.57;;
72037;SDS011;59900;50.788;12.904;2023-08-07T05:08:29;8.10;;;2.03;;
72037;SDS011;59900;50.788;12.904;2023-08-07T05:10:54;4.40;;;2.10;;
72037;SDS011;59900;50.788;12.904;2023-08-07T05:13:19;4.30;;;2.10;;
72037;SDS011;59900;50.788;12.904;2023-08-07T05:15:46;4.53;;;2.00;;
72037;SDS011;59900;50.788;12.904;2023-08-07T05:18:12;5.00;;;1.98;;
72037;SDS011;59900;50.788;12.904;2023-08-07T05:20:37;5.53;;;2.50;;
72037;SDS011;59900;50.788;12.904;2023-08-07T05:23:03;4.97;;;2.07;;
72037;SDS011;59900;50.788;12.904;2023-08-07T05:25:28;4.20;;;1.97;;
72037;SDS011;59900;50.788;12.904;2023-08-07T05:27:53;7.63;;;2.10;;
72037;SDS011;59900;50.788;12.904;2023-08-07T05:30:18;4.87;;;1.90;;
72037;SDS011;59900;50.788;12.904;2023-08-07T05:32:44;5.90;;;2.00;;
72037;SDS011;59900;50.788;12.904;2023-08-07T05:35:09;5.13;;;2.00;;
72037;SDS011;59900;50.788;12.904;2023-08-07T05:37:35;5.33;;;2.10;;
72037;SDS011;59900;50.788;12.904;2023-08-07T05:40:00;5.20;;;2.13;;
72037;SDS011;59900;50.788;12.904;2023-08-07T05:42:26;4.43;;;1.57;;
72037;SDS011;59900;50.788;12.904;2023-08-07T05:44:51;6.00;;;1.92;;
72037;SDS011;59900;50.788;12.904;2023-08-07T05:47:17;5.47;;;1.97;;
72037;SDS011;59900;50.788;12.904;2023-08-07T05:49:42;4.83;;;2.07;;
72037;SDS011;59900;50.788;12.904;2023-08-07T05:52:07;5.00;;;1.73;;
72037;SDS011;59900;50.788;12.904;2023-08-07T05:54:33;3.83;;;2.13;;
72037;SDS011;59900;50.788;12.904;2023-08-07T05:56:58;4.53;;;2.13;;
72037;SDS011;59900;50.788;12.904;2023-08-07T05:59:23;5.00;;;2.10;;
72037;SDS011;59900;50.788;12.904;2023-08-07T06:01:49;3.10;;;1.40;;
72037;SDS011;59900;50.788;12.904;2023-08-07T06:04:14;4.17;;;1.50;;
72037;SDS011;59900;50.788;12.904;2023-08-07T06:06:39;3.57;;;1.93;;
72037;SDS011;59900;50.788;12.904;2023-08-07T06:09:05;4.47;;;2.05;;
72037;SDS011;59900;50.788;12.904;2023-08-07T06:11:31;3.43;;;1.73;;
72037;SDS011;59900;50.788;12.904;2023-08-07T06:13:57;4.82;;;1.80;;
72037;SDS011;59900;50.788;12.904;2023-08-07T06:16:23;3.72;;;1.77;;
72037;SDS011;59900;50.788;12.904;2023-08-07T06:18:48;4.30;;;1.53;;
72037;SDS011;59900;50.788;12.904;2023-08-07T06:21:14;3.40;;;1.70;;
72037;SDS011;59900;50.788;12.904;2023-08-07T06:23:39;2.47;;;1.20;;
72037;SDS011;59900;50.788;12.904;2023-08-07T06:26:04;3.13;;;1.40;;
72037;SDS011;59900;50.788;12.904;2023-08-07T06:28:31;3.63;;;1.90;;
72037;SDS011;59900;50.788;12.904;2023-08-07T06:31:01;2.80;;;1.50;;
72037;SDS011;59900;50.788;12.904;2023-08-07T06:33:31;3.28;;;1.70;;
72037;SDS011;59900;50.788;12.904;2023-08-07T06:35:57;2.27;;;1.20;;
72037;SDS011;59900;50.788;12.904;2023-08-07T06:38:23;4.40;;;1.70;;
72037;SDS011;59900;50.788;12.904;2023-08-07T06:40:48;3.05;;;1.60;;
72037;SDS011;59900;50.788;12.904;2023-08-07T06:43:14;3.70;;;1.90;;
72037;SDS011;59900;50.788;12.904;2023-08-07T06:45:39;3.43;;;1.63;;
72037;SDS011;59900;50.788;12.904;2023-08-07T06:48:04;3.60;;;1.70;;
72037;SDS011;59900;50.788;12.904;2023-08-07T06:50:30;3.47;;;1.95;;
72037;SDS011;59900;50.788;12.904;2023-08-07T06:52:55;3.30;;;1.67;;
72037;SDS011;59900;50.788;12.904;2023-08-07T06:55:20;3.43;;;1.50;;
72037;SDS011;59900;50.788;12.904;2023-08-07T06:57:46;3.00;;;1.60;;
72037;SDS011;59900;50.788;12.904;2023-08-07T07:00:11;4.40;;;2.13;;
72037;SDS011;59900;50.788;12.904;2023-08-07T07:02:37;3.57;;;1.80;;
72037;SDS011;59900;50.788;12.904;2023-08-07T07:05:02;2.00;;;1.30;;
72037;SDS011;59900;50.788;12.904;2023-08-07T07:07:32;2.73;;;1.40;;
72037;SDS011;59900;50.788;12.904;2023-08-07T07:09:58;3.78;;;1.75;;
72037;SDS011;59900;50.788;12.904;2023-08-07T07:12:25;5.70;;;2.35;;
72037;SDS011;59900;50.788;12.904;2023-08-07T07:14:51;3.92;;;1.88;;
72037;SDS011;59900;50.788;12.904;2023-08-07T07:17:16;3.63;;;1.93;;
72037;SDS011;59900;50.788;12.904;2023-08-07T07:19:42;4.20;;;1.90;;
72037;SDS011;59900;50.788;12.904;2023-08-07T07:22:07;3.33;;;2.00;;
72037;SDS011;59900;50.788;12.904;2023-08-07T07:24:32;3.57;;;1.80;;
72037;SDS011;59900;50.788;12.904;2023-08-07T07:26:57;3.43;;;1.60;;
72037;SDS011;59900;50.788;12.904;2023-08-07T07:29:23;3.27;;;1.93;;
72037;SDS011;59900;50.788;12.904;2023-08-07T07:31:49;4.23;;;2.43;;
72037;SDS011;59900;50.788;12.904;2023-08-07T07:34:14;4.65;;;1.77;;
72037;SDS011;59900;50.788;12.904;2023-08-07T07:36:40;4.13;;;2.17;;
72037;SDS011;59900;50.788;12.904;2023-08-07T07:39:05;6.67;;;2.30;;
72037;SDS011;59900;50.788;12.904;2023-08-07T07:41:30;4.03;;;2.17;;
72037;SDS011;59900;50.788;12.904;2023-08-07T07:43:55;4.77;;;2.17;;
72037;SDS011;59900;50.788;12.904;2023-08-07T07:46:25;3.47;;;1.70;;
72037;SDS011;59900;50.788;12.904;2023-08-07T07:48:50;3.78;;;1.98;;
72037;SDS011;59900;50.788;12.904;2023-08-07T07:51:16;4.50;;;2.30;;
72037;SDS011;59900;50.788;12.904;2023-08-07T07:53:41;3.60;;;2.10;;
72037;SDS011;59900;50.788;12.904;2023-08-07T07:56:06;3.70;;;2.00;;
72037;SDS011;59900;50.788;12.904;2023-08-07T07:58:31;5.83;;;2.60;;
72037;SDS011;59900;50.788;12.904;2023-08-07T08:00:57;4.37;;;2.50;;
72037;SDS011;59900;50.788;12.904;2023-08-07T08:03:22;4.47;;;2.50;;
72037;SDS011;59900;50.788;12.904;2023-08-07T08:05:51;5.43;;;2.47;;
72037;SDS011;59900;50.788;12.904;2023-08-07T08:08:17;4.50;;;2.45;;
72037;SDS011;59900;50.788;12.904;2023-08-07T08:10:43;7.03;;;3.03;;
72037;SDS011;59900;50.788;12.904;2023-08-07T08:13:09;5.30;;;2.85;;
72037;SDS011;59900;50.788;12.904;2023-08-07T08:15:37;5.10;;;2.42;;
72037;SDS011;59900;50.788;12.904;2023-08-07T08:18:02;4.43;;;2.30;;
72037;SDS011;59900;50.788;12.904;2023-08-07T08:20:28;4.57;;;2.17;;
72037;SDS011;59900;50.788;12.904;2023-08-07T08:22:54;3.75;;;2.20;;
72037;SDS011;59900;50.788;12.904;2023-08-07T08:25:20;3.77;;;2.20;;
72037;SDS011;59900;50.788;12.904;2023-08-07T08:27:45;5.50;;;1.90;;
72037;SDS011;59900;50.788;12.904;2023-08-07T08:30:11;5.03;;;2.43;;
72037;SDS011;59900;50.788;12.904;2023-08-07T08:32:37;4.03;;;1.80;;
72037;SDS011;59900;50.788;12.904;2023-08-07T08:35:04;3.15;;;1.70;;
72037;SDS011;59900;50.788;12.904;2023-08-07T08:37:30;3.50;;;1.75;;
72037;SDS011;59900;50.788;12.904;2023-08-07T08:39:56;3.47;;;1.83;;
72037;SDS011;59900;50.788;12.904;2023-08-07T08:42:21;4.83;;;2.20;;
72037;SDS011;59900;50.788;12.904;2023-08-07T08:44:53;3.92;;;2.30;;
72037;SDS011;59900;50.788;12.904;2023-08-07T08:47:20;3.65;;;1.98;;
72037;SDS011;59900;50.788;12.904;2023-08-07T08:49:48;3.33;;;1.95;;
72037;SDS011;59900;50.788;12.904;2023-08-07T08:52:19;3.90;;;1.97;;
72037;SDS011;59900;50.788;12.904;2023-08-07T08:54:46;3.28;;;1.67;;
72037;SDS011;59900;50.788;12.904;2023-08-07T08:57:12;3.63;;;1.75;;
72037;SDS011;59900;50.788;12.904;2023-08-07T08:59:38;4.10;;;2.20;;
72037;SDS011;59900;50.788;12.904;2023-08-07T09:02:05;3.40;;;1.80;;
72037;SDS011;59900;50.788;12.904;2023-08-07T09:04:30;4.32;;;1.90;;
72037;SDS011;59900;50.788;12.904;2023-08-07T09:06:56;4.97;;;1.77;;
72037;SDS011;59900;50.788;12.904;2023-08-07T09:09:21;3.92;;;1.80;;
72037;SDS011;59900;50.788;12.904;2023-08-07T09:11:51;3.17;;;1.80;;
72037;SDS011;59900;50.788;12.904;2023-08-07T09:14:17;3.53;;;1.85;;
72037;SDS011;59900;50.788;12.904;2023-08-07T09:16:47;4.63;;;2.30;;
72037;SDS011;59900;50.788;12.904;2023-08-07T09:19:13;3.28;;;1.73;;
72037;SDS011;59900;50.788;12.904;2023-08-07T09:21:39;6.00;;;1.70;;
72037;SDS011;59900;50.788;12.904;2023-08-07T09:24:07;5.50;;;1.80;;
72037;SDS011;59900;50.788;12.904;2023-08-07T09:26:33;2.87;;;1.43;;
72037;SDS011;59900;50.788;12.904;2023-08-07T09:28:59;4.30;;;1.88;;
72037;SDS011;59900;50.788;12.904;2023-08-07T09:31:24;3.33;;;1.90;;
72037;SDS011;59900;50.788;12.904;2023-08-07T09:33:58;3.50;;;1.73;;
72037;SDS011;59900;50.788;12.904;2023-08-07T09:36:26;4.47;;;1.65;;
72037;SDS011;59900;50.788;12.904;2023-08-07T09:38:51;4.00;;;1.73;;
72037;SDS011;59900;50.788;12.904;2023-08-07T09:41:17;4.20;;;1.80;;
72037;SDS011;59900;50.788;12.904;2023-08-07T09:43:44;4.30;;;1.63;;
72037;SDS011;59900;50.788;12.904;2023-08-07T09:46:09;3.03;;;1.50;;
72037;SDS011;59900;50.788;12.904;2023-08-07T09:48:41;4.03;;;1.80;;
72037;SDS011;59900;50.788;12.904;2023-08-07T09:51:07;3.42;;;1.77;;
72037;SDS011;59900;50.788;12.904;2023-08-07T09:53:33;3.55;;;1.90;;
72037;SDS011;59900;50.788;12.904;2023-08-07T09:55:58;3.63;;;1.90;;
72037;SDS011;59900;50.788;12.904;2023-08-07T09:58:24;3.40;;;1.70;;
72037;SDS011;59900;50.788;12.904;2023-08-07T10:00:50;4.53;;;1.65;;
72037;SDS011;59900;50.788;12.904;2023-08-07T10:03:20;9.40;;;2.23;;
72037;SDS011;59900;50.788;12.904;2023-08-07T10:05:47;4.05;;;1.65;;
72037;SDS011;59900;50.788;12.904;2023-08-07T10:08:13;3.40;;;1.85;;
72037;SDS011;59900;50.788;12.904;2023-08-07T10:10:38;2.47;;;1.37;;
72037;SDS011;59900;50.788;12.904;2023-08-07T10:13:04;3.30;;;1.73;;
72037;SDS011;59900;50.788;12.904;2023-08-07T10:15:31;4.07;;;1.60;;
72037;SDS011;59900;50.788;12.904;2023-08-07T10:17:58;2.90;;;1.38;;
72037;SDS011;59900;50.788;12.904;2023-08-07T10:20:27;2.77;;;1.70;;
72037;SDS011;59900;50.788;12.904;2023-08-07T10:22:53;3.08;;;1.77;;
72037;SDS011;59900;50.788;12.904;2023-08-07T10:25:24;3.00;;;1.88;;
72037;SDS011;59900;50.788;12.904;2023-08-07T10:27:52;3.85;;;2.03;;
72037;SDS011;59900;50.788;12.904;2023-08-07T10:30:20;5.57;;;1.70;;
72037;SDS011;59900;50.788;12.904;2023-08-07T10:32:48;2.47;;;1.40;;
72037;SDS011;59900;50.788;12.904;2023-08-07T10:35:33;3.05;;;1.30;;
72037;SDS011;59900;50.788;12.904;2023-08-07T10:38:05;2.43;;;1.30;;
72037;SDS011;59900;50.788;12.904;2023-08-07T10:40:32;2.20;;;1.38;;
72037;SDS011;59900;50.788;12.904;2023-08-07T10:42:59;2.53;;;1.50;;
72037;SDS011;59900;50.788;12.904;2023-08-07T10:45:37;2.35;;;1.30;;
72037;SDS011;59900;50.788;12.904;2023-08-07T10:48:07;2.70;;;1.33;;
72037;SDS011;59900;50.788;12.904;2023-08-07T10:53:36;4.13;;;1.50;;
72037;SDS011;59900;50.788;12.904;2023-08-07T10:56:07;2.28;;;1.30;;
72037;SDS011;59900;50.788;12.904;2023-08-07T10:58:35;2.47;;;1.42;;
72037;SDS011;59900;50.788;12.904;2023-08-07T11:01:21;3.03;;;1.40;;
72037;SDS011;59900;50.788;12.904;2023-08-07T11:06:33;2.95;;;1.50;;
72037;SDS011;59900;50.788;12.904;2023-08-07T11:09:03;3.10;;;1.30;;
72037;SDS011;59900;50.788;12.904;2023-08-07T11:11:37;3.90;;;1.35;;
72037;SDS011;59900;50.788;12.904;2023-08-07T11:16:40;7.05;;;1.30;;
72037;SDS011;59900;50.788;12.904;2023-08-07T11:19:07;2.63;;;1.27;;
72037;SDS011;59900;50.788;12.904;2023-08-07T11:21:33;2.03;;;1.17;;
72037;SDS011;59900;50.788;12.904;2023-08-07T11:23:59;4.68;;;1.30;;
72037;SDS011;59900;50.788;12.904;2023-08-07T11:26:24;3.57;;;1.80;;
72037;SDS011;59900;50.788;12.904;2023-08-07T11:28:51;2.60;;;1.50;;
72037;SDS011;59900;50.788;12.904;2023-08-07T11:31:17;2.93;;;1.80;;
72037;SDS011;59900;50.788;12.904;2023-08-07T11:33:42;4.28;;;1.58;;
72037;SDS011;59900;50.788;12.904;2023-08-07T11:36:14;2.27;;;1.30;;
72037;SDS011;59900;50.788;12.904;2023-08-07T11:41:08;2.47;;;1.20;;
72037;SDS011;59900;50.788;12.904;2023-08-07T11:43:34;2.70;;;1.40;;
72037;SDS011;59900;50.788;12.904;2023-08-07T11:46:03;2.42;;;1.58;;
72037;SDS011;59900;50.788;12.904;2023-08-07T11:48:30;2.42;;;1.35;;
72037;SDS011;59900;50.788;12.904;2023-08-07T11:51:00;2.00;;;1.30;;
72037;SDS011;59900;50.788;12.904;2023-08-07T11:53:27;2.58;;;1.05;;
72037;SDS011;59900;50.788;12.904;2023-08-07T11:55:55;3.03;;;1.50;;
72037;SDS011;59900;50.788;12.904;2023-08-07T11:58:26;2.17;;;1.10;;
72037;SDS011;59900;50.788;12.904;2023-08-07T12:00:58;1.83;;;1.20;;
72037;SDS011;59900;50.788;12.904;2023-08-07T12:03:30;2.00;;;1.20;;
72037;SDS011;59900;50.788;12.904;2023-08-07T12:06:02;2.42;;;1.17;;
72037;SDS011;59900;50.788;12.904;2023-08-07T12:11:21;1.80;;;1.13;;
72037;SDS011;59900;50.788;12.904;2023-08-07T12:13:46;2.15;;;1.35;;
72037;SDS011;59900;50.788;12.904;2023-08-07T12:16:13;2.17;;;1.13;;
72037;SDS011;59900;50.788;12.904;2023-08-07T12:18:46;1.70;;;0.95;;
72037;SDS011;59900;50.788;12.904;2023-08-07T12:21:14;2.05;;;1.45;;
72037;SDS011;59900;50.788;12.904;2023-08-07T12:23:45;2.67;;;1.20;;
72037;SDS011;59900;50.788;12.904;2023-08-07T12:26:14;1.87;;;1.20;;
72037;SDS011;59900;50.788;12.904;2023-08-07T12:28:40;2.00;;;1.27;;
72037;SDS011;59900;50.788;12.904;2023-08-07T12:31:05;2.27;;;1.30;;
72037;SDS011;59900;50.788;12.904;2023-08-07T12:33:31;2.00;;;1.50;;
72037;SDS011;59900;50.788;12.904;2023-08-07T12:35:58;1.67;;;1.10;;
72037;SDS011;59900;50.788;12.904;2023-08-07T12:38:27;2.10;;;1.35;;
72037;SDS011;59900;50.788;12.904;2023-08-07T12:40:52;1.63;;;1.07;;
72037;SDS011;59900;50.788;12.904;2023-08-07T12:43:18;1.60;;;0.97;;
72037;SDS011;59900;50.788;12.904;2023-08-07T12:45:46;3.50;;;1.00;;
72037;SDS011;59900;50.788;12.904;2023-08-07T12:48:12;2.10;;;1.33;;
72037;SDS011;59900;50.788;12.904;2023-08-07T12:50:38;2.70;;;1.20;;
72037;SDS011;59900;50.788;12.904;2023-08-07T12:53:08;2.05;;;1.45;;
72037;SDS011;59900;50.788;12.904;2023-08-07T12:55:33;2.03;;;1.42;;
72037;SDS011;59900;50.788;12.904;2023-08-07T12:57:59;1.80;;;1.10;;
72037;SDS011;59900;50.788;12.904;2023-08-07T13:00:27;3.35;;;1.00;;
72037;SDS011;59900;50.788;12.904;2023-08-07T13:02:52;1.40;;;0.90;;
72037;SDS011;59900;50.788;12.904;2023-08-07T13:05:22;1.65;;;1.05;;
72037;SDS011;59900;50.788;12.904;2023-08-07T13:07:48;3.88;;;1.13;;
72037;SDS011;59900;50.788;12.904;2023-08-07T13:10:14;1.40;;;1.00;;
72037;SDS011;59900;50.788;12.904;2023-08-07T13:12:42;1.73;;;0.98;;
72037;SDS011;59900;50.788;12.904;2023-08-07T13:15:11;2.63;;;1.25;;
72037;SDS011;59900;50.788;12.904;2023-08-07T13:17:43;3.92;;;1.63;;
72037;SDS011;59900;50.788;12.904;2023-08-07T13:20:09;2.17;;;1.43;;
72037;SDS011;59900;50.788;12.904;2023-08-07T13:22:38;1.65;;;1.00;;
72037;SDS011;59900;50.788;12.904;2023-08-07T13:25:04;2.05;;;1.00;;
72037;SDS011;59900;50.788;12.904;2023-08-07T13:27:30;1.95;;;1.30;;
72037;SDS011;59900;50.788;12.904;2023-08-07T13:29:59;2.10;;;1.30;;
72037;SDS011;59900;50.788;12.904;2023-08-07T13:32:25;1.77;;;0.80;;
72037;SDS011;59900;50.788;12.904;2023-08-07T13:34:54;2.22;;;1.00;;
72037;SDS011;59900;50.788;12.904;2023-08-07T13:37:19;1.90;;;1.20;;
72037;SDS011;59900;50.788;12.904;2023-08-07T13:39:45;1.67;;;1.20;;
72037;SDS011;59900;50.788;12.904;2023-08-07T13:42:10;1.63;;;0.85;;
72037;SDS011;59900;50.788;12.904;2023-08-07T13:44:36;1.63;;;0.93;;
72037;SDS011;59900;50.788;12.904;2023-08-07T13:47:05;2.05;;;0.90;;
72037;SDS011;59900;50.788;12.904;2023-08-07T13:49:30;1.70;;;0.80;;
72037;SDS011;59900;50.788;12.904;2023-08-07T13:51:55;1.90;;;1.00;;
72037;SDS011;59900;50.788;12.904;2023-08-07T13:54:21;5.95;;;1.20;;
72037;SDS011;59900;50.788;12.904;2023-08-07T13:56:46;3.43;;;0.90;;
72037;SDS011;59900;50.788;12.904;2023-08-07T13:59:15;1.53;;;0.90;;
72037;SDS011;59900;50.788;12.904;2023-08-07T14:01:40;4.55;;;1.30;;
72037;SDS011;59900;50.788;12.904;2023-08-07T14:04:06;1.63;;;1.10;;
72037;SDS011;59900;50.788;12.904;2023-08-07T14:06:35;2.42;;;0.85;;
72037;SDS011;59900;50.788;12.904;2023-08-07T14:09:00;2.20;;;0.90;;
72037;SDS011;59900;50.788;12.904;2023-08-07T14:11:25;2.53;;;1.30;;
72037;SDS011;59900;50.788;12.904;2023-08-07T14:13:55;1.73;;;0.93;;
72037;SDS011;59900;50.788;12.904;2023-08-07T14:16:21;1.90;;;1.20;;
72037;SDS011;59900;50.788;12.904;2023-08-07T14:18:47;1.40;;;0.90;;
72037;SDS011;59900;50.788;12.904;2023-08-07T14:21:12;2.33;;;1.10;;
72037;SDS011;59900;50.788;12.904;2023-08-07T14:23:41;3.50;;;1.23;;
72037;SDS011;59900;50.788;12.904;2023-08-07T14:26:07;2.17;;;1.30;;
72037;SDS011;59900;50.788;12.904;2023-08-07T14:28:35;1.70;;;0.90;;
72037;SDS011;59900;50.788;12.904;2023-08-07T14:31:00;2.23;;;1.20;;
72037;SDS011;59900;50.788;12.904;2023-08-07T14:33:31;2.03;;;1.17;;
72037;SDS011;59900;50.788;12.904;2023-08-07T14:35:56;2.47;;;1.30;;
72037;SDS011;59900;50.788;12.904;2023-08-07T14:38:22;2.47;;;1.30;;
72037;SDS011;59900;50.788;12.904;2023-08-07T14:40:47;3.57;;;1.10;;
72037;SDS011;59900;50.788;12.904;2023-08-07T14:43:12;2.30;;;1.17;;
72037;SDS011;59900;50.788;12.904;2023-08-07T14:45:38;2.10;;;1.20;;
72037;SDS011;59900;50.788;12.904;2023-08-07T14:48:06;2.40;;;1.30;;
72037;SDS011;59900;50.788;12.904;2023-08-07T14:50:32;2.63;;;1.40;;